createdAt,value
2019-04-22T00:00:32.967Z,15.60
2019-04-22T00:03:02.814Z,15.50
2019-04-22T00:05:44.380Z,15.40
2019-04-22T00:08:18.376Z,15.30
2019-04-22T00:10:46.748Z,15.20
2019-04-22T00:13:20.022Z,15.00
2019-04-22T00:15:41.725Z,15.10
2019-04-22T00:18:26.681Z,15.00
2019-04-22T00:20:47.108Z,15.00
2019-04-22T00:23:13.239Z,14.90
2019-04-22T00:25:44.013Z,14.70
2019-04-22T00:28:14.649Z,14.60
2019-04-22T00:30:36.131Z,14.60
2019-04-22T00:33:20.434Z,14.50
2019-04-22T00:35:51.094Z,14.40
2019-04-22T00:38:25.108Z,14.10
2019-04-22T00:40:52.303Z,13.90
2019-04-22T00:43:19.662Z,14.10
2019-04-22T00:45:44.752Z,14.00
2019-04-22T00:48:23.967Z,14.00
2019-04-22T00:50:46.670Z,13.80
2019-04-22T00:53:16.453Z,13.60
2019-04-22T00:56:05.630Z,13.50
2019-04-22T00:58:39.415Z,13.50
2019-04-22T01:01:09.015Z,13.50
2019-04-22T01:03:41.025Z,13.60
2019-04-22T01:06:07.763Z,13.60
2019-04-22T01:08:40.286Z,13.50
2019-04-22T01:11:03.043Z,13.50
2019-04-22T01:13:27.659Z,13.40
2019-04-22T01:15:58.596Z,13.30
2019-04-22T01:18:23.102Z,13.40
2019-04-22T01:21:05.829Z,13.60
2019-04-22T01:23:23.978Z,13.30
2019-04-22T01:25:46.195Z,13.30
2019-04-22T01:28:15.205Z,13.20
2019-04-22T01:30:43.027Z,13.40
2019-04-22T01:33:09.426Z,13.50
2019-04-22T01:35:41.152Z,13.40
2019-04-22T01:38:13.329Z,13.30
2019-04-22T01:40:55.685Z,13.30
2019-04-22T01:43:24.886Z,13.20
2019-04-22T01:45:48.301Z,13.10
2019-04-22T01:48:19.741Z,13.10
2019-04-22T01:50:44.304Z,12.90
2019-04-22T01:53:19.645Z,12.80
2019-04-22T01:55:43.893Z,12.80
2019-04-22T01:58:10.764Z,12.80
2019-04-22T02:00:44.359Z,13.00
2019-04-22T02:03:14.115Z,13.00
2019-04-22T02:05:40.630Z,13.10
2019-04-22T02:08:14.814Z,13.10
2019-04-22T02:10:42.128Z,13.10
2019-04-22T02:13:06.706Z,13.20
2019-04-22T02:15:41.572Z,13.10
2019-04-22T02:18:10.597Z,13.00
2019-04-22T02:20:40.663Z,12.90
2019-04-22T02:26:00.928Z,12.90
2019-04-22T02:33:54.363Z,12.80
2019-04-22T02:36:19.118Z,12.80
2019-04-22T02:38:44.639Z,12.60
2019-04-22T02:43:34.248Z,12.40
2019-04-22T02:46:13.526Z,12.50
2019-04-22T02:48:45.907Z,12.60
2019-04-22T02:51:06.169Z,12.80
2019-04-22T02:53:44.455Z,12.70
2019-04-22T02:56:01.673Z,12.60
2019-04-22T02:58:35.361Z,12.60
2019-04-22T03:00:56.567Z,12.50
2019-04-22T03:03:31.353Z,12.30
2019-04-22T03:08:23.927Z,12.40
2019-04-22T03:10:56.269Z,12.40
2019-04-22T03:13:29.212Z,12.30
2019-04-22T03:16:01.034Z,12.40
2019-04-22T03:20:53.395Z,12.20
2019-04-22T03:23:25.380Z,12.20
2019-04-22T03:26:05.110Z,12.20
2019-04-22T03:28:19.207Z,12.20
2019-04-22T03:35:50.026Z,12.20
2019-04-22T03:38:08.499Z,12.20
2019-04-22T03:40:47.291Z,12.10
2019-04-22T03:45:32.047Z,11.80
2019-04-22T03:48:07.311Z,11.80
2019-04-22T03:55:41.134Z,11.60
2019-04-22T04:00:47.743Z,11.70
2019-04-22T04:10:35.450Z,11.60
2019-04-22T04:20:32.345Z,11.90
2019-04-22T04:25:32.217Z,12.20
2019-04-22T04:32:52.711Z,12.50
2019-04-22T04:37:52.758Z,12.70
2019-04-22T04:40:21.261Z,12.60
2019-04-22T04:42:47.875Z,12.70
2019-04-22T04:45:34.242Z,12.90
2019-04-22T04:52:50.888Z,13.10
2019-04-22T04:55:20.906Z,13.20
2019-04-22T04:57:43.564Z,13.10
2019-04-22T05:00:32.760Z,13.30
2019-04-22T05:02:46.636Z,13.30
2019-04-22T05:05:20.612Z,13.70
2019-04-22T05:07:36.032Z,15.80
2019-04-22T05:15:00.377Z,15.90
2019-04-22T05:17:25.421Z,16.10
2019-04-22T05:19:59.081Z,17.00
2019-04-22T05:22:23.913Z,18.00
2019-04-22T05:24:53.366Z,19.20
2019-04-22T05:27:24.688Z,20.00
2019-04-22T05:30:03.354Z,20.80
2019-04-22T05:32:31.312Z,21.80
2019-04-22T05:34:48.581Z,22.20
2019-04-22T05:37:14.804Z,22.70
2019-04-22T05:39:41.529Z,23.00
2019-04-22T05:42:10.378Z,22.10
2019-04-22T05:47:11.026Z,23.10
2019-04-22T05:49:35.108Z,23.80
2019-04-22T05:52:05.239Z,25.00
2019-04-22T05:54:33.045Z,25.60
2019-04-22T05:57:04.092Z,25.70
2019-04-22T05:59:32.544Z,25.50
2019-04-22T06:02:05.367Z,25.80
2019-04-22T06:04:25.541Z,25.80
2019-04-22T06:06:53.917Z,27.30
2019-04-22T06:09:30.612Z,27.60
2019-04-22T06:11:51.548Z,28.50
2019-04-22T06:14:24.874Z,28.20
2019-04-22T06:17:01.944Z,29.00
2019-04-22T06:19:24.512Z,29.10
2019-04-22T06:21:49.095Z,30.80
2019-04-22T06:24:28.017Z,29.40
2019-04-22T06:27:01.668Z,29.40
2019-04-22T06:29:19.629Z,30.30
2019-04-22T06:32:15.168Z,31.60
2019-04-22T06:34:27.555Z,32.50
2019-04-22T06:36:51.187Z,29.80
2019-04-22T06:39:23.507Z,30.80
2019-04-22T06:41:47.821Z,31.50
2019-04-22T06:46:45.773Z,33.00
2019-04-22T06:49:10.426Z,33.50
2019-04-22T06:51:37.509Z,33.10
2019-04-22T06:54:07.777Z,31.60
2019-04-22T06:56:35.324Z,31.50
2019-04-22T06:59:07.250Z,31.80
2019-04-22T07:04:01.528Z,33.40
2019-04-22T07:06:35.465Z,33.60
2019-04-22T07:11:24.697Z,31.50
2019-04-22T07:14:01.696Z,31.20
2019-04-22T07:16:32.425Z,30.10
2019-04-22T07:18:56.710Z,30.60
2019-04-22T07:21:22.258Z,30.90
2019-04-22T07:23:56.581Z,32.30
2019-04-22T07:26:21.559Z,31.80
2019-04-22T07:28:49.045Z,33.20
2019-04-22T07:31:15.810Z,32.30
2019-04-22T07:33:42.453Z,33.30
2019-04-22T07:38:35.652Z,32.90
2019-04-22T07:41:17.274Z,32.90
2019-04-22T07:46:13.772Z,33.60
2019-04-22T07:49:41.041Z,33.00
2019-04-22T07:51:20.452Z,32.30
2019-04-22T07:53:37.408Z,34.40
2019-04-22T07:56:05.363Z,34.30
2019-04-22T08:01:02.018Z,32.80
2019-04-22T08:03:37.477Z,34.00
2019-04-22T08:06:05.146Z,33.00
2019-04-22T08:13:30.564Z,31.50
2019-04-22T08:15:58.785Z,30.70
2019-04-22T08:18:32.901Z,30.00
2019-04-22T08:20:56.723Z,30.20
2019-04-22T08:23:25.984Z,30.70
2019-04-22T08:25:49.494Z,30.40
2019-04-22T08:28:26.246Z,31.00
2019-04-22T08:33:21.672Z,31.00
2019-04-22T08:36:05.408Z,30.70
2019-04-22T08:38:14.741Z,30.50
2019-04-22T08:41:08.370Z,29.70
2019-04-22T08:43:39.205Z,29.00
2019-04-22T08:46:15.207Z,29.10
2019-04-22T08:48:29.597Z,29.70
2019-04-22T08:51:05.452Z,29.80
2019-04-22T08:53:37.623Z,30.60
2019-04-22T08:56:06.285Z,30.00
2019-04-22T09:00:58.273Z,30.80
2019-04-22T09:03:22.328Z,29.40
2019-04-22T09:08:23.072Z,28.30
2019-04-22T09:10:48.640Z,28.20
2019-04-22T09:13:18.575Z,26.70
2019-04-22T09:15:42.220Z,26.50
2019-04-22T09:18:17.895Z,25.60
2019-04-22T09:20:48.677Z,24.50
2019-04-22T09:23:21.482Z,23.50
2019-04-22T09:25:39.212Z,23.40
2019-04-22T09:28:10.329Z,22.90
2019-04-22T09:30:40.509Z,22.40
2019-04-22T09:33:17.092Z,22.10
2019-04-22T09:35:41.429Z,21.70
2019-04-22T09:38:23.406Z,21.40
2019-04-22T09:40:35.175Z,21.50
2019-04-22T09:43:05.013Z,21.60
2019-04-22T09:45:27.523Z,21.60
2019-04-22T09:50:30.609Z,21.30
2019-04-22T09:53:02.467Z,21.20
2019-04-22T09:55:29.796Z,21.30
2019-04-22T09:57:55.678Z,21.30
2019-04-22T10:00:26.927Z,21.30
2019-04-22T10:03:00.834Z,21.20
2019-04-22T10:07:59.383Z,21.40
2019-04-22T10:10:29.570Z,21.70
2019-04-22T10:12:54.081Z,21.90
2019-04-22T10:15:23.046Z,21.80
2019-04-22T10:17:54.630Z,21.70
2019-04-22T10:20:20.292Z,21.70
2019-04-22T10:22:54.773Z,21.90
2019-04-22T10:25:21.430Z,21.70
2019-04-22T10:27:53.612Z,21.50
2019-04-22T10:30:23.101Z,21.50
2019-04-22T10:32:46.183Z,21.60
2019-04-22T10:35:08.168Z,21.60
2019-04-22T10:37:32.259Z,21.60
2019-04-22T10:40:02.882Z,21.90
2019-04-22T10:42:31.259Z,21.90
2019-04-22T10:44:59.311Z,21.90
2019-04-22T10:47:27.977Z,22.00
2019-04-22T10:49:56.200Z,22.10
2019-04-22T10:52:23.718Z,22.00
2019-04-22T10:54:51.681Z,21.90
2019-04-22T10:57:20.033Z,22.10
2019-04-22T10:59:46.952Z,22.20
2019-04-22T11:02:13.888Z,22.30
2019-04-22T11:04:40.607Z,22.10
2019-04-22T11:07:10.803Z,22.00
2019-04-22T11:09:47.680Z,22.20
2019-04-22T11:12:11.677Z,22.20
2019-04-22T11:14:34.815Z,22.30
2019-04-22T11:17:04.039Z,22.20
2019-04-22T11:19:30.259Z,22.40
2019-04-22T11:22:06.305Z,22.20
2019-04-22T11:24:26.649Z,22.30
2019-04-22T11:26:54.931Z,22.30
2019-04-22T11:29:21.792Z,22.40
2019-04-22T11:31:48.584Z,22.60
2019-04-22T11:34:15.435Z,22.50
2019-04-22T11:36:43.021Z,22.60
2019-04-22T11:39:12.927Z,22.70
2019-04-22T11:41:40.250Z,22.70
2019-04-22T11:44:07.700Z,22.70
2019-04-22T11:46:35.596Z,22.60
2019-04-22T11:49:03.731Z,22.70
2019-04-22T11:51:31.977Z,22.60
2019-04-22T11:53:58.999Z,22.60
2019-04-22T11:56:27.083Z,22.90
2019-04-22T11:58:55.169Z,22.80
2019-04-22T12:01:22.466Z,23.00
2019-04-22T12:03:49.562Z,22.80
2019-04-22T12:06:17.985Z,22.90
2019-04-22T12:08:45.911Z,23.10
2019-04-22T12:11:13.744Z,23.00
2019-04-22T12:13:42.029Z,23.10
2019-04-22T12:16:09.410Z,23.20
2019-04-22T12:18:37.312Z,23.30
2019-04-22T12:21:05.420Z,23.00
2019-04-22T12:23:32.784Z,23.20
2019-04-22T12:26:04.142Z,23.30
2019-04-22T12:28:28.834Z,23.30
2019-04-22T12:30:55.803Z,23.30
2019-04-22T12:33:23.521Z,23.30
2019-04-22T12:35:50.700Z,23.30
2019-04-22T12:38:19.853Z,23.30
2019-04-22T12:40:53.147Z,23.40
2019-04-22T12:43:18.520Z,23.40
2019-04-22T12:45:44.896Z,23.40
2019-04-22T12:48:12.739Z,23.40
2019-04-22T12:50:43.494Z,23.40
2019-04-22T12:53:11.356Z,23.40
2019-04-22T12:55:37.651Z,23.50
2019-04-22T12:58:05.451Z,23.60
2019-04-22T13:00:34.218Z,23.70
2019-04-22T13:03:03.147Z,23.70
2019-04-22T13:05:31.370Z,23.70
2019-04-22T13:07:59.905Z,23.80
2019-04-22T13:10:40.629Z,23.70
2019-04-22T13:12:57.010Z,23.80
2019-04-22T13:15:26.429Z,23.80
2019-04-22T13:18:04.440Z,23.80
2019-04-22T13:20:24.197Z,23.70
2019-04-22T13:22:51.060Z,23.60
2019-04-22T13:25:19.758Z,23.60
2019-04-22T13:27:46.936Z,23.50
2019-04-22T13:30:16.424Z,23.40
2019-04-22T13:32:44.548Z,23.30
2019-04-22T13:35:12.823Z,23.20
2019-04-22T13:37:41.094Z,23.10
2019-04-22T13:40:08.352Z,23.10
2019-04-22T13:42:35.538Z,23.10
2019-04-22T13:45:04.035Z,23.10
2019-04-22T13:47:49.133Z,23.20
2019-04-22T13:53:10.881Z,23.70
2019-04-22T13:55:27.353Z,23.80
2019-04-22T13:57:41.481Z,23.90
2019-04-22T13:59:59.812Z,23.90
2019-04-22T14:02:37.015Z,23.90
2019-04-22T14:05:06.407Z,24.20
2019-04-22T14:07:34.767Z,24.30
2019-04-22T14:10:02.614Z,24.40
2019-04-22T14:12:30.787Z,24.50
2019-04-22T14:14:58.427Z,24.40
2019-04-22T14:17:25.241Z,24.20
2019-04-22T14:19:52.821Z,24.30
2019-04-22T14:22:20.023Z,24.10
2019-04-22T14:24:46.945Z,24.10
2019-04-22T14:27:25.640Z,24.20
2019-04-22T14:29:42.296Z,24.20
2019-04-22T14:32:17.059Z,24.10
2019-04-22T14:34:38.396Z,23.90
2019-04-22T14:37:05.794Z,24.00
2019-04-22T14:39:33.727Z,24.00
2019-04-22T14:42:21.739Z,24.20
2019-04-22T14:47:19.878Z,24.10
2019-04-22T14:49:47.241Z,24.20
2019-04-22T14:52:22.644Z,24.20
2019-04-22T14:54:37.558Z,24.20
2019-04-22T14:56:54.256Z,24.30
2019-04-22T14:59:21.167Z,24.20
2019-04-22T15:01:47.872Z,24.10
2019-04-22T15:04:15.188Z,23.90
2019-04-22T15:06:45.159Z,23.90
2019-04-22T15:09:12.228Z,23.90
2019-04-22T15:11:50.745Z,23.90
2019-04-22T15:14:09.551Z,23.90
2019-04-22T15:17:00.754Z,23.90
2019-04-22T15:19:35.916Z,24.00
2019-04-22T15:22:03.268Z,24.00
2019-04-22T15:24:30.092Z,23.90
2019-04-22T15:26:58.642Z,24.00
2019-04-22T15:29:27.215Z,24.00
2019-04-22T15:31:55.670Z,24.00
2019-04-22T15:34:22.714Z,24.10
2019-04-22T15:36:50.509Z,24.00
2019-04-22T15:39:18.698Z,23.90
2019-04-22T15:41:57.088Z,23.80
2019-04-22T15:44:15.452Z,23.90
2019-04-22T15:46:42.651Z,23.70
2019-04-22T15:49:09.933Z,23.60
2019-04-22T15:51:38.642Z,23.50
2019-04-22T15:54:05.669Z,23.50
2019-04-22T15:56:32.669Z,23.50
2019-04-22T15:58:59.843Z,23.40
2019-04-22T16:01:33.159Z,23.40
2019-04-22T16:03:56.545Z,23.40
2019-04-22T16:06:24.044Z,23.40
2019-04-22T16:08:52.087Z,23.40
2019-04-22T16:11:20.014Z,23.40
2019-04-22T16:13:48.313Z,23.40
2019-04-22T16:16:16.399Z,23.30
2019-04-22T16:18:44.416Z,23.20
2019-04-22T16:21:11.466Z,23.20
2019-04-22T16:24:00.793Z,23.30
2019-04-22T16:27:02.446Z,23.30
2019-04-22T16:29:29.638Z,23.20
2019-04-22T16:31:57.631Z,23.30
2019-04-22T16:34:24.627Z,23.30
2019-04-22T16:36:52.714Z,23.20
2019-04-22T16:39:20.745Z,23.10
2019-04-22T16:41:48.666Z,23.00
2019-04-22T16:44:16.482Z,22.90
2019-04-22T16:46:43.749Z,22.80
2019-04-22T16:49:11.718Z,22.80
2019-04-22T16:51:38.534Z,22.80
2019-04-22T16:54:06.505Z,22.70
2019-04-22T16:56:35.644Z,22.70
2019-04-22T16:59:04.425Z,22.60
2019-04-22T17:01:58.688Z,22.50
2019-04-22T17:04:34.592Z,22.50
2019-04-22T17:07:01.818Z,22.40
2019-04-22T17:09:29.843Z,22.40
2019-04-22T17:11:57.988Z,22.30
2019-04-22T17:14:32.774Z,22.30
2019-04-22T17:16:54.758Z,22.30
2019-04-22T17:19:23.547Z,22.20
2019-04-22T17:21:50.477Z,22.20
2019-04-22T17:24:17.475Z,22.10
2019-04-22T17:26:44.494Z,22.10
2019-04-22T17:29:12.424Z,22.00
2019-04-22T17:31:40.933Z,22.00
2019-04-22T17:34:09.461Z,22.00
2019-04-22T17:36:38.161Z,21.80
2019-04-22T17:39:21.332Z,21.80
2019-04-22T17:41:58.298Z,21.60
2019-04-22T17:44:37.734Z,21.60
2019-04-22T17:47:00.489Z,21.60
2019-04-22T17:49:48.620Z,21.40
2019-04-22T17:52:21.074Z,21.40
2019-04-22T17:54:49.247Z,21.20
2019-04-22T17:57:19.582Z,21.30
2019-04-22T17:59:46.935Z,21.30
2019-04-22T18:02:09.762Z,21.30
2019-04-22T18:04:29.034Z,21.30
2019-04-22T18:07:21.622Z,21.10
2019-04-22T18:10:11.654Z,21.10
2019-04-22T18:12:19.610Z,21.00
2019-04-22T18:15:01.010Z,20.90
2019-04-22T18:17:14.092Z,20.90
2019-04-22T18:19:36.351Z,20.90
2019-04-22T18:22:00.823Z,20.90
2019-04-22T18:24:26.386Z,20.80
2019-04-22T18:27:07.381Z,20.70
2019-04-22T18:29:33.357Z,20.60
2019-04-22T18:31:54.454Z,20.50
2019-04-22T18:34:26.640Z,20.30
2019-04-22T18:36:57.974Z,20.20
2019-04-22T18:39:38.891Z,20.10
2019-04-22T18:41:51.906Z,20.00
2019-04-22T18:44:27.101Z,19.90
2019-04-22T18:46:52.302Z,19.80
2019-04-22T18:49:21.655Z,19.60
2019-04-22T18:52:01.144Z,19.60
2019-04-22T18:54:36.213Z,19.50
2019-04-22T18:57:09.815Z,19.30
2019-04-22T18:59:26.283Z,19.20
2019-04-22T19:01:51.835Z,19.30
2019-04-22T19:04:24.306Z,19.20
2019-04-22T19:07:14.958Z,19.10
2019-04-22T19:09:45.334Z,18.90
2019-04-22T19:12:18.116Z,18.90
2019-04-22T19:14:43.632Z,18.90
2019-04-22T19:17:10.904Z,18.70
2019-04-22T19:22:02.235Z,18.60
2019-04-22T19:24:24.514Z,18.50
2019-04-22T19:26:58.731Z,18.50
2019-04-22T19:29:33.619Z,18.40
2019-04-22T19:31:56.837Z,18.30
2019-04-22T19:34:25.601Z,18.30
2019-04-22T19:37:00.619Z,18.30
2019-04-22T19:39:26.181Z,18.30
2019-04-22T19:42:06.705Z,18.20
2019-04-22T19:44:29.182Z,18.20
2019-04-22T19:47:10.732Z,18.10
2019-04-22T19:52:02.504Z,18.00
2019-04-22T19:54:19.186Z,17.90
2019-04-22T19:56:38.688Z,17.90
2019-04-22T19:59:13.037Z,17.90
2019-04-22T20:02:00.953Z,17.80
2019-04-22T20:04:52.750Z,17.80
2019-04-22T20:07:15.447Z,17.70
2019-04-22T20:09:52.198Z,17.70
2019-04-22T20:12:18.907Z,17.80
2019-04-22T20:14:48.364Z,17.60
2019-04-22T20:17:09.623Z,17.70
2019-04-22T20:19:50.173Z,17.70
2019-04-22T20:22:09.356Z,17.70
2019-04-22T20:24:27.741Z,17.70
2019-04-22T20:27:15.925Z,17.50
2019-04-22T20:29:55.118Z,17.60
2019-04-22T20:32:05.403Z,17.60
2019-04-22T20:34:38.069Z,17.50
2019-04-22T20:37:10.644Z,17.40
2019-04-22T20:39:39.544Z,17.30
2019-04-22T20:42:18.088Z,17.30
2019-04-22T20:44:33.551Z,17.20
2019-04-22T20:46:56.244Z,17.30
2019-04-22T20:49:30.624Z,17.20
2019-04-22T20:52:06.352Z,17.20
2019-04-22T20:54:23.189Z,17.20
2019-04-22T20:56:51.827Z,17.10
2019-04-22T20:59:25.748Z,17.00
2019-04-22T21:01:48.920Z,16.90
2019-04-22T21:04:09.072Z,16.90
2019-04-22T21:06:47.630Z,16.80
2019-04-22T21:09:25.452Z,16.80
2019-04-22T21:11:45.403Z,16.80
2019-04-22T21:14:14.759Z,16.70
2019-04-22T21:16:48.207Z,16.70
2019-04-22T21:19:21.559Z,16.60
2019-04-22T21:21:45.012Z,16.50
2019-04-22T21:24:02.890Z,16.50
2019-04-22T21:26:39.746Z,16.50
2019-04-22T21:29:07.181Z,16.40
2019-04-22T21:31:38.929Z,16.40
2019-04-22T21:34:05.269Z,16.20
2019-04-22T21:36:35.401Z,16.20
2019-04-22T21:39:03.839Z,16.10
2019-04-22T21:41:33.783Z,16.10
2019-04-22T21:43:58.176Z,16.10
2019-04-22T21:46:28.971Z,16.00
2019-04-22T21:49:00.183Z,16.00
2019-04-22T21:51:36.134Z,16.00
2019-04-22T21:54:06.789Z,16.00
2019-04-22T21:56:40.986Z,15.80
2019-04-22T21:59:15.559Z,15.80
2019-04-22T22:04:17.530Z,15.70
2019-04-22T22:06:34.640Z,15.60
2019-04-22T22:09:15.342Z,15.60
2019-04-22T22:11:38.616Z,15.60
2019-04-22T22:14:10.337Z,15.60
2019-04-22T22:16:31.567Z,15.50
2019-04-22T22:19:08.435Z,15.60
2019-04-22T22:24:08.666Z,15.50
2019-04-22T22:26:38.479Z,15.30
2019-04-22T22:29:07.753Z,15.40
2019-04-22T22:31:34.525Z,15.30
2019-04-22T22:34:06.019Z,15.30
2019-04-22T22:36:23.832Z,15.20
2019-04-22T22:38:51.924Z,15.20
2019-04-22T22:41:05.794Z,15.20
2019-04-22T22:43:39.114Z,15.10
2019-04-22T22:46:15.191Z,15.00
2019-04-22T22:48:51.528Z,15.00
2019-04-22T22:51:29.928Z,15.00
2019-04-22T22:53:57.069Z,14.90
2019-04-22T22:56:18.962Z,15.00
2019-04-22T22:58:50.370Z,14.80
2019-04-22T23:01:16.090Z,14.90
2019-04-22T23:03:51.043Z,14.90
2019-04-22T23:06:21.325Z,14.80
2019-04-22T23:08:49.505Z,14.80
2019-04-22T23:11:13.438Z,14.80
2019-04-22T23:13:49.748Z,14.90
2019-04-22T23:16:00.929Z,14.80
2019-04-22T23:18:16.672Z,14.80
2019-04-22T23:20:47.725Z,14.80
2019-04-22T23:23:36.007Z,14.70
2019-04-22T23:26:03.852Z,14.70
2019-04-22T23:28:39.740Z,14.80
2019-04-22T23:31:29.250Z,14.80
2019-04-22T23:34:06.706Z,14.70
2019-04-22T23:36:48.050Z,14.60
2019-04-22T23:39:24.561Z,14.60
2019-04-22T23:41:51.289Z,14.60
2019-04-22T23:44:20.160Z,14.60
2019-04-22T23:46:46.463Z,14.50
2019-04-22T23:49:20.783Z,14.50
2019-04-22T23:51:55.346Z,14.50
2019-04-22T23:54:22.256Z,14.40
2019-04-22T23:56:45.150Z,14.40
2019-04-22T23:59:34.037Z,14.30
